sensor_id;sensor_type;location;lat;lon;timestamp;pressure;altitude;pressure_sealevel;temperature;humidity
58662;BME280;44432;49.786;22.760;2023-07-20T00:00:05;98565.44;;;17.05;83.85
58662;BME280;44432;49.786;22.760;2023-07-20T00:03:11;98564.96;;;17.02;83.97
58662;BME280;44432;49.786;22.760;2023-07-20T00:05:46;98568.55;;;16.98;83.94
58662;BME280;44432;49.786;22.760;2023-07-20T00:08:17;98566.11;;;16.96;84.13
58662;BME280;44432;49.786;22.760;2023-07-20T00:10:47;98561.68;;;16.96;84.39
58662;BME280;44432;49.786;22.760;2023-07-20T00:13:18;98557.27;;;16.93;84.46
58662;BME280;44432;49.786;22.760;2023-07-20T00:15:50;98558.34;;;16.90;84.04
58662;BME280;44432;49.786;22.760;2023-07-20T00:18:21;98564.31;;;16.86;84.23
58662;BME280;44432;49.786;22.760;2023-07-20T00:20:51;98562.13;;;16.86;84.28
58662;BME280;44432;49.786;22.760;2023-07-20T00:23:22;98558.77;;;16.86;84.38
58662;BME280;44432;49.786;22.760;2023-07-20T00:25:52;98555.79;;;16.86;84.33
58662;BME280;44432;49.786;22.760;2023-07-20T00:28:24;98554.39;;;16.88;84.38
58662;BME280;44432;49.786;22.760;2023-07-20T00:30:54;98557.71;;;16.87;84.15
58662;BME280;44432;49.786;22.760;2023-07-20T00:33:25;98559.68;;;16.84;84.27
58662;BME280;44432;49.786;22.760;2023-07-20T00:35:56;98564.70;;;16.82;84.20
58662;BME280;44432;49.786;22.760;2023-07-20T00:38:26;98568.86;;;16.80;84.53
58662;BME280;44432;49.786;22.760;2023-07-20T00:40:57;98568.28;;;16.77;84.35
58662;BME280;44432;49.786;22.760;2023-07-20T00:43:27;98566.21;;;16.73;84.44
58662;BME280;44432;49.786;22.760;2023-07-20T00:45:58;98562.80;;;16.72;84.74
58662;BME280;44432;49.786;22.760;2023-07-20T00:48:29;98561.95;;;16.70;84.74
58662;BME280;44432;49.786;22.760;2023-07-20T00:51:01;98560.03;;;16.68;84.70
58662;BME280;44432;49.786;22.760;2023-07-20T00:53:32;98566.44;;;16.66;84.81
58662;BME280;44432;49.786;22.760;2023-07-20T00:56:03;98563.23;;;16.65;84.85
58662;BME280;44432;49.786;22.760;2023-07-20T00:58:34;98555.40;;;16.63;84.81
58662;BME280;44432;49.786;22.760;2023-07-20T01:01:05;98558.17;;;16.63;84.82
58662;BME280;44432;49.786;22.760;2023-07-20T01:03:36;98553.27;;;16.63;84.84
58662;BME280;44432;49.786;22.760;2023-07-20T01:06:12;98552.27;;;16.62;84.98
58662;BME280;44432;49.786;22.760;2023-07-20T01:08:51;98544.15;;;16.63;85.00
58662;BME280;44432;49.786;22.760;2023-07-20T01:11:33;98544.21;;;16.65;85.20
58662;BME280;44432;49.786;22.760;2023-07-20T01:14:06;98536.38;;;16.64;85.14
58662;BME280;44432;49.786;22.760;2023-07-20T01:16:38;98538.81;;;16.64;84.99
58662;BME280;44432;49.786;22.760;2023-07-20T01:19:08;98536.85;;;16.63;84.88
58662;BME280;44432;49.786;22.760;2023-07-20T01:21:44;98533.93;;;16.61;85.02
58662;BME280;44432;49.786;22.760;2023-07-20T01:24:35;98541.81;;;16.60;85.30
58662;BME280;44432;49.786;22.760;2023-07-20T01:27:29;98540.91;;;16.59;85.29
58662;BME280;44432;49.786;22.760;2023-07-20T01:30:16;98545.06;;;16.62;85.43
58662;BME280;44432;49.786;22.760;2023-07-20T01:32:55;98546.83;;;16.62;85.19
58662;BME280;44432;49.786;22.760;2023-07-20T01:35:30;98545.77;;;16.60;85.24
58662;BME280;44432;49.786;22.760;2023-07-20T01:37:59;98546.19;;;16.57;85.37
58662;BME280;44432;49.786;22.760;2023-07-20T01:40:30;98551.37;;;16.55;85.42
58662;BME280;44432;49.786;22.760;2023-07-20T01:43:01;98555.48;;;16.53;85.44
58662;BME280;44432;49.786;22.760;2023-07-20T01:45:32;98553.56;;;16.52;85.27
58662;BME280;44432;49.786;22.760;2023-07-20T01:48:03;98549.92;;;16.51;85.36
58662;BME280;44432;49.786;22.760;2023-07-20T01:50:34;98553.51;;;16.51;85.34
58662;BME280;44432;49.786;22.760;2023-07-20T01:53:04;98553.30;;;16.53;85.40
58662;BME280;44432;49.786;22.760;2023-07-20T01:55:35;98553.61;;;16.54;85.37
58662;BME280;44432;49.786;22.760;2023-07-20T01:58:06;98552.75;;;16.54;85.34
58662;BME280;44432;49.786;22.760;2023-07-20T02:00:38;98552.33;;;16.54;85.10
58662;BME280;44432;49.786;22.760;2023-07-20T02:03:08;98545.56;;;16.51;85.07
58662;BME280;44432;49.786;22.760;2023-07-20T02:05:43;98543.16;;;16.49;85.20
58662;BME280;44432;49.786;22.760;2023-07-20T02:08:14;98537.20;;;16.50;85.47
58662;BME280;44432;49.786;22.760;2023-07-20T02:10:46;98534.48;;;16.52;85.46
58662;BME280;44432;49.786;22.760;2023-07-20T02:13:17;98534.16;;;16.50;85.26
58662;BME280;44432;49.786;22.760;2023-07-20T02:15:47;98531.55;;;16.49;85.45
58662;BME280;44432;49.786;22.760;2023-07-20T02:18:18;98531.98;;;16.48;85.52
58662;BME280;44432;49.786;22.760;2023-07-20T02:20:49;98529.48;;;16.46;85.52
58662;BME280;44432;49.786;22.760;2023-07-20T02:23:20;98529.91;;;16.42;85.56
58662;BME280;44432;49.786;22.760;2023-07-20T02:25:51;98533.64;;;16.42;85.72
58662;BME280;44432;49.786;22.760;2023-07-20T02:28:22;98534.70;;;16.40;85.53
58662;BME280;44432;49.786;22.760;2023-07-20T02:30:53;98531.04;;;16.37;85.54
58662;BME280;44432;49.786;22.760;2023-07-20T02:33:23;98531.08;;;16.35;85.70
58662;BME280;44432;49.786;22.760;2023-07-20T02:35:54;98530.88;;;16.35;85.83
58662;BME280;44432;49.786;22.760;2023-07-20T02:38:24;98525.49;;;16.35;85.87
58662;BME280;44432;49.786;22.760;2023-07-20T02:40:55;98520.70;;;16.36;85.97
58662;BME280;44432;49.786;22.760;2023-07-20T02:43:25;98518.52;;;16.34;85.66
58662;BME280;44432;49.786;22.760;2023-07-20T02:45:56;98515.15;;;16.33;85.78
58662;BME280;44432;49.786;22.760;2023-07-20T02:48:27;98512.02;;;16.30;85.83
58662;BME280;44432;49.786;22.760;2023-07-20T02:50:57;98511.05;;;16.32;86.00
58662;BME280;44432;49.786;22.760;2023-07-20T02:53:28;98507.80;;;16.33;86.05
58662;BME280;44432;49.786;22.760;2023-07-20T02:55:59;98503.27;;;16.32;85.97
58662;BME280;44432;49.786;22.760;2023-07-20T02:58:29;98502.11;;;16.31;85.77
58662;BME280;44432;49.786;22.760;2023-07-20T03:01:00;98506.31;;;16.30;85.96
58662;BME280;44432;49.786;22.760;2023-07-20T03:03:30;98504.08;;;16.30;86.11
58662;BME280;44432;49.786;22.760;2023-07-20T03:06:01;98506.21;;;16.34;86.36
58662;BME280;44432;49.786;22.760;2023-07-20T03:08:32;98509.24;;;16.38;86.22
58662;BME280;44432;49.786;22.760;2023-07-20T03:11:03;98504.98;;;16.40;86.25
58662;BME280;44432;49.786;22.760;2023-07-20T03:13:34;98509.13;;;16.41;86.24
58662;BME280;44432;49.786;22.760;2023-07-20T03:16:04;98507.05;;;16.42;86.19
58662;BME280;44432;49.786;22.760;2023-07-20T03:18:40;98502.36;;;16.45;86.13
58662;BME280;44432;49.786;22.760;2023-07-20T03:21:11;98499.96;;;16.46;85.97
58662;BME280;44432;49.786;22.760;2023-07-20T03:23:42;98504.86;;;16.47;85.87
58662;BME280;44432;49.786;22.760;2023-07-20T03:26:13;98513.38;;;16.49;85.89
58662;BME280;44432;49.786;22.760;2023-07-20T03:28:43;98515.66;;;16.51;85.77
58662;BME280;44432;49.786;22.760;2023-07-20T03:31:14;98515.60;;;16.56;85.87
58662;BME280;44432;49.786;22.760;2023-07-20T03:33:45;98519.16;;;16.60;85.82
58662;BME280;44432;49.786;22.760;2023-07-20T03:36:15;98514.04;;;16.65;85.79
58662;BME280;44432;49.786;22.760;2023-07-20T03:38:46;98508.05;;;16.69;85.66
58662;BME280;44432;49.786;22.760;2023-07-20T03:41:17;98512.04;;;16.76;85.59
58662;BME280;44432;49.786;22.760;2023-07-20T03:43:49;98506.64;;;16.81;85.54
58662;BME280;44432;49.786;22.760;2023-07-20T03:46:19;98503.59;;;16.85;85.42
58662;BME280;44432;49.786;22.760;2023-07-20T03:48:50;98504.75;;;16.90;85.25
58662;BME280;44432;49.786;22.760;2023-07-20T03:51:21;98509.86;;;16.90;85.09
58662;BME280;44432;49.786;22.760;2023-07-20T03:53:51;98518.28;;;16.91;85.06
58662;BME280;44432;49.786;22.760;2023-07-20T03:56:22;98516.10;;;16.90;84.87
58662;BME280;44432;49.786;22.760;2023-07-20T03:58:53;98517.16;;;16.91;84.84
58662;BME280;44432;49.786;22.760;2023-07-20T04:01:24;98518.02;;;16.92;84.74
58662;BME280;44432;49.786;22.760;2023-07-20T04:03:54;98519.18;;;16.96;84.70
58662;BME280;44432;49.786;22.760;2023-07-20T04:06:25;98518.63;;;16.99;84.71
58662;BME280;44432;49.786;22.760;2023-07-20T04:08:56;98521.49;;;17.04;84.46
58662;BME280;44432;49.786;22.760;2023-07-20T04:11:26;98523.67;;;17.06;84.51
58662;BME280;44432;49.786;22.760;2023-07-20T04:13:57;98517.64;;;17.08;84.53
58662;BME280;44432;49.786;22.760;2023-07-20T04:16:28;98520.40;;;17.11;84.56
58662;BME280;44432;49.786;22.760;2023-07-20T04:18:58;98518.14;;;17.14;84.51
58662;BME280;44432;49.786;22.760;2023-07-20T04:21:29;98518.82;;;17.19;84.49
58662;BME280;44432;49.786;22.760;2023-07-20T04:24:00;98514.95;;;17.26;84.67
58662;BME280;44432;49.786;22.760;2023-07-20T04:26:30;98516.39;;;17.36;84.39
58662;BME280;44432;49.786;22.760;2023-07-20T04:29:01;98521.89;;;17.45;84.11
58662;BME280;44432;49.786;22.760;2023-07-20T04:31:32;98520.20;;;17.52;83.77
58662;BME280;44432;49.786;22.760;2023-07-20T04:34:03;98518.65;;;17.63;83.87
58662;BME280;44432;49.786;22.760;2023-07-20T04:36:34;98521.88;;;17.75;83.70
58662;BME280;44432;49.786;22.760;2023-07-20T04:39:04;98524.70;;;17.89;83.48
58662;BME280;44432;49.786;22.760;2023-07-20T04:41:35;98524.52;;;18.02;83.00
58662;BME280;44432;49.786;22.760;2023-07-20T04:44:06;98524.12;;;18.18;82.94
58662;BME280;44432;49.786;22.760;2023-07-20T04:46:36;98523.48;;;18.37;83.00
58662;BME280;44432;49.786;22.760;2023-07-20T04:49:07;98526.52;;;18.54;82.34
58662;BME280;44432;49.786;22.760;2023-07-20T04:51:38;98524.90;;;18.73;82.08
58662;BME280;44432;49.786;22.760;2023-07-20T04:54:08;98525.82;;;18.89;81.95
58662;BME280;44432;49.786;22.760;2023-07-20T04:56:39;98530.64;;;19.04;81.63
58662;BME280;44432;49.786;22.760;2023-07-20T04:59:09;98532.96;;;19.15;81.25
58662;BME280;44432;49.786;22.760;2023-07-20T05:01:40;98533.55;;;19.24;81.07
58662;BME280;44432;49.786;22.760;2023-07-20T05:04:11;98531.03;;;19.33;80.76
58662;BME280;44432;49.786;22.760;2023-07-20T05:06:42;98532.35;;;19.38;80.36
58662;BME280;44432;49.786;22.760;2023-07-20T05:09:13;98526.04;;;19.41;80.09
58662;BME280;44432;49.786;22.760;2023-07-20T05:11:43;98532.67;;;19.46;79.71
58662;BME280;44432;49.786;22.760;2023-07-20T05:14:15;98530.44;;;19.38;79.12
58662;BME280;44432;49.786;22.760;2023-07-20T05:16:46;98536.95;;;19.31;79.28
58662;BME280;44432;49.786;22.760;2023-07-20T05:19:16;98545.69;;;19.25;79.34
58662;BME280;44432;49.786;22.760;2023-07-20T05:21:47;98564.42;;;19.20;79.33
58662;BME280;44432;49.786;22.760;2023-07-20T05:24:18;98585.36;;;19.14;79.21
58662;BME280;44432;49.786;22.760;2023-07-20T05:26:49;98597.91;;;19.07;79.56
58662;BME280;44432;49.786;22.760;2023-07-20T05:29:19;98610.25;;;19.04;80.07
58662;BME280;44432;49.786;22.760;2023-07-20T05:31:50;98625.14;;;19.02;80.43
58662;BME280;44432;49.786;22.760;2023-07-20T05:34:20;98627.19;;;18.97;80.54
58662;BME280;44432;49.786;22.760;2023-07-20T05:36:52;98631.20;;;18.91;80.90
58662;BME280;44432;49.786;22.760;2023-07-20T05:39:22;98622.14;;;18.86;81.13
58662;BME280;44432;49.786;22.760;2023-07-20T05:41:53;98621.83;;;18.80;81.26
58662;BME280;44432;49.786;22.760;2023-07-20T05:44:24;98609.86;;;18.74;81.48
58662;BME280;44432;49.786;22.760;2023-07-20T05:46:54;98597.40;;;18.71;81.98
58662;BME280;44432;49.786;22.760;2023-07-20T05:49:25;98593.63;;;18.68;82.02
58662;BME280;44432;49.786;22.760;2023-07-20T05:51:59;98594.93;;;18.66;82.27
58662;BME280;44432;49.786;22.760;2023-07-20T05:54:30;98596.27;;;18.66;82.20
58662;BME280;44432;49.786;22.760;2023-07-20T05:57:00;98591.86;;;18.62;81.96
58662;BME280;44432;49.786;22.760;2023-07-20T05:59:31;98584.41;;;18.55;81.69
58662;BME280;44432;49.786;22.760;2023-07-20T06:02:02;98582.02;;;18.48;81.93
58662;BME280;44432;49.786;22.760;2023-07-20T06:04:32;98577.44;;;18.40;81.99
58662;BME280;44432;49.786;22.760;2023-07-20T06:07:03;98562.97;;;18.31;82.24
58662;BME280;44432;49.786;22.760;2023-07-20T06:09:34;98559.23;;;18.24;82.38
58662;BME280;44432;49.786;22.760;2023-07-20T06:12:06;98562.05;;;18.12;82.28
58662;BME280;44432;49.786;22.760;2023-07-20T06:14:37;98555.23;;;18.03;82.66
58662;BME280;44432;49.786;22.760;2023-07-20T06:17:08;98548.65;;;17.95;82.88
58662;BME280;44432;49.786;22.760;2023-07-20T06:19:38;98558.64;;;17.88;82.91
58662;BME280;44432;49.786;22.760;2023-07-20T06:22:09;98584.09;;;17.82;83.54
58662;BME280;44432;49.786;22.760;2023-07-20T06:24:40;98597.27;;;17.77;83.80
58662;BME280;44432;49.786;22.760;2023-07-20T06:27:12;98604.17;;;17.73;84.28
58662;BME280;44432;49.786;22.760;2023-07-20T06:29:44;98600.50;;;17.72;84.30
58662;BME280;44432;49.786;22.760;2023-07-20T06:32:14;98582.71;;;17.72;84.41
58662;BME280;44432;49.786;22.760;2023-07-20T06:34:45;98565.27;;;17.76;84.50
58662;BME280;44432;49.786;22.760;2023-07-20T06:37:16;98534.64;;;17.83;84.41
58662;BME280;44432;49.786;22.760;2023-07-20T06:39:47;98523.68;;;17.92;84.14
58662;BME280;44432;49.786;22.760;2023-07-20T06:42:17;98548.05;;;17.97;84.09
58662;BME280;44432;49.786;22.760;2023-07-20T06:44:48;98575.19;;;17.96;84.23
58662;BME280;44432;49.786;22.760;2023-07-20T06:47:19;98581.67;;;17.94;84.29
58662;BME280;44432;49.786;22.760;2023-07-20T06:49:49;98598.20;;;17.88;83.77
58662;BME280;44432;49.786;22.760;2023-07-20T06:52:20;98624.20;;;17.80;83.62
58662;BME280;44432;49.786;22.760;2023-07-20T06:54:51;98622.23;;;17.78;83.90
58662;BME280;44432;49.786;22.760;2023-07-20T06:57:22;98613.41;;;17.82;83.98
58662;BME280;44432;49.786;22.760;2023-07-20T06:59:52;98622.45;;;17.88;84.14
58662;BME280;44432;49.786;22.760;2023-07-20T07:02:23;98635.13;;;17.85;83.95
58662;BME280;44432;49.786;22.760;2023-07-20T07:04:54;98640.66;;;17.78;83.86
58662;BME280;44432;49.786;22.760;2023-07-20T07:07:25;98654.13;;;17.69;83.95
58662;BME280;44432;49.786;22.760;2023-07-20T07:09:56;98668.24;;;17.60;84.05
58662;BME280;44432;49.786;22.760;2023-07-20T07:12:26;98675.10;;;17.51;84.17
58662;BME280;44432;49.786;22.760;2023-07-20T07:14:57;98692.68;;;17.42;83.91
58662;BME280;44432;49.786;22.760;2023-07-20T07:17:29;98705.10;;;17.31;84.20
58662;BME280;44432;49.786;22.760;2023-07-20T07:20:00;98725.92;;;17.23;84.51
58662;BME280;44432;49.786;22.760;2023-07-20T07:22:31;98760.81;;;17.18;85.19
58662;BME280;44432;49.786;22.760;2023-07-20T07:25:02;98796.02;;;17.14;85.71
58662;BME280;44432;49.786;22.760;2023-07-20T07:27:33;98792.08;;;17.10;85.95
58662;BME280;44432;49.786;22.760;2023-07-20T07:30:05;98755.27;;;17.06;85.82
58662;BME280;44432;49.786;22.760;2023-07-20T07:32:36;98739.21;;;17.05;86.05
58662;BME280;44432;49.786;22.760;2023-07-20T07:35:08;98743.75;;;17.07;86.17
58662;BME280;44432;49.786;22.760;2023-07-20T07:37:38;98741.51;;;17.12;86.79
58662;BME280;44432;49.786;22.760;2023-07-20T07:40:10;98743.52;;;17.21;87.28
58662;BME280;44432;49.786;22.760;2023-07-20T07:42:41;98736.64;;;17.30;87.65
58662;BME280;44432;49.786;22.760;2023-07-20T07:45:12;98743.72;;;17.38;87.73
58662;BME280;44432;49.786;22.760;2023-07-20T07:47:43;98746.68;;;17.51;88.06
58662;BME280;44432;49.786;22.760;2023-07-20T07:50:13;98757.66;;;17.63;88.06
58662;BME280;44432;49.786;22.760;2023-07-20T07:52:44;98770.02;;;17.73;88.20
58662;BME280;44432;49.786;22.760;2023-07-20T07:55:16;98783.65;;;17.85;88.24
58662;BME280;44432;49.786;22.760;2023-07-20T07:57:47;98791.90;;;17.94;87.85
58662;BME280;44432;49.786;22.760;2023-07-20T08:00:19;98797.39;;;18.00;87.72
58662;BME280;44432;49.786;22.760;2023-07-20T08:02:51;98797.01;;;18.04;87.89
58662;BME280;44432;49.786;22.760;2023-07-20T08:05:22;98799.82;;;18.08;87.89
58662;BME280;44432;49.786;22.760;2023-07-20T08:07:53;98797.14;;;18.12;87.80
58662;BME280;44432;49.786;22.760;2023-07-20T08:10:24;98790.13;;;18.16;87.71
58662;BME280;44432;49.786;22.760;2023-07-20T08:12:54;98783.52;;;18.25;87.61
58662;BME280;44432;49.786;22.760;2023-07-20T08:15:25;98779.48;;;18.42;87.57
58662;BME280;44432;49.786;22.760;2023-07-20T08:17:56;98788.48;;;18.58;87.57
58662;BME280;44432;49.786;22.760;2023-07-20T08:20:26;98789.48;;;18.65;87.07
58662;BME280;44432;49.786;22.760;2023-07-20T08:22:57;98794.35;;;18.65;86.34
58662;BME280;44432;49.786;22.760;2023-07-20T08:25:28;98794.52;;;18.62;86.40
58662;BME280;44432;49.786;22.760;2023-07-20T08:27:59;98799.23;;;18.61;86.40
58662;BME280;44432;49.786;22.760;2023-07-20T08:30:41;98804.25;;;18.56;86.11
58662;BME280;44432;49.786;22.760;2023-07-20T08:33:15;98815.02;;;18.53;85.91
58662;BME280;44432;49.786;22.760;2023-07-20T08:35:46;98814.28;;;18.51;86.30
58662;BME280;44432;49.786;22.760;2023-07-20T08:38:17;98811.79;;;18.61;86.39
58662;BME280;44432;49.786;22.760;2023-07-20T08:40:48;98810.44;;;18.78;86.19
58662;BME280;44432;49.786;22.760;2023-07-20T08:43:19;98809.37;;;18.95;86.02
58662;BME280;44432;49.786;22.760;2023-07-20T08:45:51;98805.19;;;19.10;85.31
58662;BME280;44432;49.786;22.760;2023-07-20T08:48:22;98804.98;;;19.29;84.95
58662;BME280;44432;49.786;22.760;2023-07-20T08:50:54;98809.81;;;19.40;84.07
58662;BME280;44432;49.786;22.760;2023-07-20T08:53:26;98807.14;;;19.55;84.22
58662;BME280;44432;49.786;22.760;2023-07-20T08:55:57;98805.36;;;19.77;84.47
58662;BME280;44432;49.786;22.760;2023-07-20T08:58:29;98801.05;;;20.03;83.96
58662;BME280;44432;49.786;22.760;2023-07-20T09:01:01;98800.23;;;20.17;82.62
58662;BME280;44432;49.786;22.760;2023-07-20T09:03:32;98800.90;;;20.25;82.40
58662;BME280;44432;49.786;22.760;2023-07-20T09:06:03;98801.33;;;20.38;82.39
58662;BME280;44432;49.786;22.760;2023-07-20T09:08:34;98803.94;;;20.46;82.27
58662;BME280;44432;49.786;22.760;2023-07-20T09:11:08;98804.96;;;20.49;81.22
58662;BME280;44432;49.786;22.760;2023-07-20T09:13:39;98787.89;;;20.36;79.59
58662;BME280;44432;49.786;22.760;2023-07-20T09:16:10;98772.66;;;20.31;80.64
58662;BME280;44432;49.786;22.760;2023-07-20T09:18:43;98758.55;;;20.37;81.05
58662;BME280;44432;49.786;22.760;2023-07-20T09:21:18;98757.40;;;20.44;81.02
58662;BME280;44432;49.786;22.760;2023-07-20T09:23:49;98771.81;;;20.49;81.15
58662;BME280;44432;49.786;22.760;2023-07-20T09:26:22;98771.84;;;20.51;80.46
58662;BME280;44432;49.786;22.760;2023-07-20T09:28:54;98765.16;;;20.57;80.91
58662;BME280;44432;49.786;22.760;2023-07-20T09:31:25;98765.15;;;20.72;81.11
58662;BME280;44432;49.786;22.760;2023-07-20T09:33:56;98768.16;;;20.84;80.79
58662;BME280;44432;49.786;22.760;2023-07-20T09:36:27;98774.24;;;21.00;80.42
58662;BME280;44432;49.786;22.760;2023-07-20T09:39:00;98776.88;;;21.13;80.14
58662;BME280;44432;49.786;22.760;2023-07-20T09:41:31;98769.69;;;21.28;79.32
58662;BME280;44432;49.786;22.760;2023-07-20T09:44:12;98767.66;;;21.42;79.13
58662;BME280;44432;49.786;22.760;2023-07-20T09:46:44;98771.38;;;21.56;78.40
58662;BME280;44432;49.786;22.760;2023-07-20T09:49:15;98776.98;;;21.77;78.34
58662;BME280;44432;49.786;22.760;2023-07-20T09:51:47;98773.67;;;21.99;77.96
58662;BME280;44432;49.786;22.760;2023-07-20T09:54:19;98773.94;;;22.21;77.44
58662;BME280;44432;49.786;22.760;2023-07-20T09:56:52;98774.07;;;22.40;76.61
58662;BME280;44432;49.786;22.760;2023-07-20T09:59:23;98770.65;;;22.54;76.06
58662;BME280;44432;49.786;22.760;2023-07-20T10:01:55;98777.65;;;22.59;75.33
58662;BME280;44432;49.786;22.760;2023-07-20T10:04:29;98782.64;;;22.60;75.19
58662;BME280;44432;49.786;22.760;2023-07-20T10:07:01;98782.59;;;22.52;73.89
58662;BME280;44432;49.786;22.760;2023-07-20T10:09:36;98786.48;;;22.41;72.84
58662;BME280;44432;49.786;22.760;2023-07-20T10:12:10;98788.64;;;22.38;73.52
58662;BME280;44432;49.786;22.760;2023-07-20T10:14:43;98792.23;;;22.37;72.32
58662;BME280;44432;49.786;22.760;2023-07-20T10:17:16;98781.31;;;22.34;72.52
58662;BME280;44432;49.786;22.760;2023-07-20T10:19:49;98781.60;;;22.36;72.71
58662;BME280;44432;49.786;22.760;2023-07-20T10:22:26;98775.30;;;22.46;72.76
58662;BME280;44432;49.786;22.760;2023-07-20T10:24:57;98776.79;;;22.57;72.91
58662;BME280;44432;49.786;22.760;2023-07-20T10:27:28;98778.89;;;22.69;71.77
58662;BME280;44432;49.786;22.760;2023-07-20T10:30:00;98783.84;;;22.83;72.39
58662;BME280;44432;49.786;22.760;2023-07-20T10:32:33;98780.21;;;23.04;72.74
58662;BME280;44432;49.786;22.760;2023-07-20T10:35:13;98780.27;;;23.26;72.19
58662;BME280;44432;49.786;22.760;2023-07-20T10:37:53;98780.08;;;23.44;71.50
58662;BME280;44432;49.786;22.760;2023-07-20T10:40:31;98783.95;;;23.56;70.88
58662;BME280;44432;49.786;22.760;2023-07-20T10:43:05;98784.83;;;23.53;68.43
58662;BME280;44432;49.786;22.760;2023-07-20T10:45:41;98783.37;;;23.37;69.00
58662;BME280;44432;49.786;22.760;2023-07-20T10:48:21;98779.69;;;23.32;68.57
58662;BME280;44432;49.786;22.760;2023-07-20T10:51:20;98782.69;;;23.15;68.44
58662;BME280;44432;49.786;22.760;2023-07-20T10:53:51;98776.20;;;23.12;69.47
58662;BME280;44432;49.786;22.760;2023-07-20T10:56:25;98770.84;;;23.15;69.56
58662;BME280;44432;49.786;22.760;2023-07-20T10:58:58;98769.83;;;23.26;70.48
58662;BME280;44432;49.786;22.760;2023-07-20T11:01:37;98775.65;;;23.47;70.42
58662;BME280;44432;49.786;22.760;2023-07-20T11:04:09;98777.30;;;23.65;70.07
58662;BME280;44432;49.786;22.760;2023-07-20T11:06:44;98768.23;;;23.75;69.71
58662;BME280;44432;49.786;22.760;2023-07-20T11:09:15;98770.80;;;23.88;69.38
58662;BME280;44432;49.786;22.760;2023-07-20T11:11:47;98769.95;;;23.94;68.52
58662;BME280;44432;49.786;22.760;2023-07-20T11:14:25;98769.59;;;23.99;68.35
58662;BME280;44432;49.786;22.760;2023-07-20T11:17:12;98761.06;;;24.11;67.88
58662;BME280;44432;49.786;22.760;2023-07-20T11:19:43;98763.61;;;24.26;67.13
58662;BME280;44432;49.786;22.760;2023-07-20T11:22:18;98765.39;;;24.33;66.28
58662;BME280;44432;49.786;22.760;2023-07-20T11:24:50;98768.70;;;24.40;65.55
58662;BME280;44432;49.786;22.760;2023-07-20T11:27:20;98765.16;;;24.47;65.05
58662;BME280;44432;49.786;22.760;2023-07-20T11:29:52;98768.19;;;24.59;65.28
58662;BME280;44432;49.786;22.760;2023-07-20T11:32:23;98764.85;;;24.69;64.88
58662;BME280;44432;49.786;22.760;2023-07-20T11:34:54;98767.87;;;24.82;64.43
58662;BME280;44432;49.786;22.760;2023-07-20T11:37:31;98765.45;;;24.81;61.93
58662;BME280;44432;49.786;22.760;2023-07-20T11:40:04;98767.04;;;24.70;60.14
58662;BME280;44432;49.786;22.760;2023-07-20T11:42:35;98765.73;;;24.49;59.73
58662;BME280;44432;49.786;22.760;2023-07-20T11:45:07;98764.98;;;24.36;59.66
58662;BME280;44432;49.786;22.760;2023-07-20T11:47:42;98767.16;;;24.23;59.07
58662;BME280;44432;49.786;22.760;2023-07-20T11:50:13;98761.88;;;24.10;58.89
58662;BME280;44432;49.786;22.760;2023-07-20T11:52:45;98763.29;;;23.99;58.44
58662;BME280;44432;49.786;22.760;2023-07-20T11:55:16;98762.34;;;23.76;58.60
58662;BME280;44432;49.786;22.760;2023-07-20T11:58:03;98761.23;;;23.57;58.25
58662;BME280;44432;49.786;22.760;2023-07-20T12:00:35;98754.08;;;23.26;57.26
58662;BME280;44432;49.786;22.760;2023-07-20T12:03:07;98753.42;;;23.01;56.67
58662;BME280;44432;49.786;22.760;2023-07-20T12:05:39;98747.45;;;22.85;57.71
58662;BME280;44432;49.786;22.760;2023-07-20T12:08:10;98746.65;;;22.93;58.82
58662;BME280;44432;49.786;22.760;2023-07-20T12:10:42;98735.36;;;23.06;58.97
58662;BME280;44432;49.786;22.760;2023-07-20T12:13:13;98730.65;;;23.18;58.76
58662;BME280;44432;49.786;22.760;2023-07-20T12:15:45;98728.29;;;23.26;58.11
58662;BME280;44432;49.786;22.760;2023-07-20T12:18:15;98725.30;;;23.33;57.45
58662;BME280;44432;49.786;22.760;2023-07-20T12:20:46;98722.13;;;23.41;56.58
58662;BME280;44432;49.786;22.760;2023-07-20T12:23:16;98725.29;;;23.47;56.02
58662;BME280;44432;49.786;22.760;2023-07-20T12:25:48;98723.98;;;23.61;55.58
58662;BME280;44432;49.786;22.760;2023-07-20T12:28:20;98724.18;;;23.81;55.15
58662;BME280;44432;49.786;22.760;2023-07-20T12:30:49;98719.73;;;23.87;52.84
58662;BME280;44432;49.786;22.760;2023-07-20T12:33:25;98715.40;;;23.81;53.85
58662;BME280;44432;49.786;22.760;2023-07-20T12:35:56;98717.02;;;23.90;53.81
58662;BME280;44432;49.786;22.760;2023-07-20T12:38:28;98715.95;;;23.87;52.41
58662;BME280;44432;49.786;22.760;2023-07-20T12:41:01;98714.30;;;23.84;52.91
58662;BME280;44432;49.786;22.760;2023-07-20T12:43:32;98722.58;;;23.95;52.77
58662;BME280;44432;49.786;22.760;2023-07-20T12:46:03;98716.85;;;24.03;52.83
58662;BME280;44432;49.786;22.760;2023-07-20T12:48:35;98712.64;;;24.25;52.58
58662;BME280;44432;49.786;22.760;2023-07-20T12:51:06;98714.20;;;24.52;52.17
58662;BME280;44432;49.786;22.760;2023-07-20T12:53:37;98718.87;;;24.70;51.53
58662;BME280;44432;49.786;22.760;2023-07-20T12:56:07;98714.73;;;24.85;50.06
58662;BME280;44432;49.786;22.760;2023-07-20T12:58:38;98711.84;;;24.83;49.48
58662;BME280;44432;49.786;22.760;2023-07-20T13:01:09;98709.92;;;24.86;50.34
58662;BME280;44432;49.786;22.760;2023-07-20T13:03:39;98710.81;;;25.04;50.42
58662;BME280;44432;49.786;22.760;2023-07-20T13:06:10;98716.27;;;25.21;50.22
58662;BME280;44432;49.786;22.760;2023-07-20T13:08:40;98714.29;;;25.38;49.37
58662;BME280;44432;49.786;22.760;2023-07-20T13:11:11;98713.66;;;25.50;49.13
58662;BME280;44432;49.786;22.760;2023-07-20T13:13:42;98713.04;;;25.48;48.79